Friday, July 3, 2015, 3:50 AM EDT

KESN, Easton / Newman Field

Location: Easton, MD, United States Lat: 38.8
Local Time: 3:50 AM EDT ( 7:50 GMT) Lon: -76.067
Time Zone: US/Eastern Elev: 72 ft

Show me the last for .
Show Decoded

2015-07-03 03:30 METAR KESN 030740Z AUTO 00000KT 4SM BR CLR 18/18 A2994 =
2015-07-03 03:30 METAR KESN 030740Z AUTO 00000KT 4SM BR CLR 18/18 A2994 RMK AO2 T01750175 =
2015-07-03 03:11 METAR KESN 030720Z AUTO 00000KT 4SM BR CLR 17/17 A2994 =
2015-07-03 03:00 METAR KESN 030700Z AUTO 00000KT 1 1/2SM BR VV007 18/18 A2995 RMK AO2 T01800180 =
2015-07-03 02:31 METAR KESN 030640Z AUTO 00000KT 3SM BR CLR 18/18 A2995 =
2015-07-03 02:31 METAR KESN 030640Z AUTO 00000KT 3SM BR CLR 18/18 A2995 RMK AO2 T01800180 =
2015-07-03 02:16 METAR KESN 030620Z AUTO 00000KT 1 1/2SM BR VV007 18/18 A2995 =
2015-07-03 02:13 METAR KESN 030620Z AUTO 00000KT 1 1/2SM BR VV007 18/18 A2995 RMK AO2 T01820182 =
2015-07-03 02:00 METAR KESN 030600Z AUTO 00000KT 1/2SM FG VV005 18/18 A2995 RMK AO2 T01840184 =
2015-07-03 01:33 METAR KESN 030540Z AUTO 00000KT 1/4SM FG BKN001 18/18 A2995 =
2015-07-03 01:33 METAR KESN 030540Z AUTO 00000KT 1/4SM FG BKN001 18/18 A2995 RMK AO2 T01810181 =
2015-07-03 01:12 METAR KESN 030520Z AUTO 00000KT 1/4SM FG BKN001 19/19 A2995 =
2015-07-03 01:08 METAR KESN 030520Z AUTO 00000KT 1/4SM FG BKN001 19/19 A2995 RMK AO2 T01850185 =
2015-07-03 01:00 METAR KESN 030500Z AUTO 00000KT 1/4SM FG BKN001 19/19 A2995 RMK AO2 T01850185 =
2015-07-03 00:31 METAR KESN 030440Z AUTO 00000KT 1/4SM FG BKN001 19/19 A2995 =
2015-07-03 00:28 METAR KESN 030440Z AUTO 00000KT 1/4SM FG BKN001 19/19 A2995 RMK AO2 T01900190 =
2015-07-03 00:12 METAR KESN 030420Z AUTO 00000KT 1/2SM FG VV005 19/19 A2995 =
2015-07-03 00:11 METAR KESN 030420Z AUTO 00000KT 1/2SM FG VV005 19/19 A2995 RMK AO2 T01890189 =
2015-07-03 00:00 METAR KESN 030400Z AUTO 00000KT 3/4SM BR BKN001 19/19 A2994 RMK AO2 T01880188 =
2015-07-02 23:31 METAR KESN 030340Z AUTO 00000KT 1/2SM FG BKN001 BKN120 19/19 A2994 =
2015-07-02 23:27 METAR KESN 030340Z AUTO 00000KT 1/2SM FG BKN001 BKN120 19/19 A2994 RMK AO2
                 T01900190 =
2015-07-02 23:11 METAR KESN 030320Z AUTO 00000KT 1/2SM FG VV005 19/19 A2993 =
2015-07-02 23:10 METAR KESN 030320Z AUTO 00000KT 1/2SM FG VV005 19/19 A2993 RMK AO2 T01920192 =
2015-07-02 23:00 METAR KESN 030300Z AUTO 00000KT 2 1/2SM BR CLR 20/20 A2993 RMK AO2 VIS 2V4
                 T01950195 =
2015-07-02 22:30 METAR KESN 030240Z AUTO 00000KT 3SM BR CLR 20/20 A2994 =
2015-07-02 22:29 METAR KESN 030240Z AUTO 00000KT 3SM BR CLR 20/20 A2994 RMK AO2 T02000200 =
2015-07-02 20:55 METAR KESN 030055Z 00000KT 4SM BR SCT065 21/21 A2991 =
2015-07-02 19:50 METAR KESN 022350Z 00000KT 6SM BR SCT065 22/22 A2991 =
2015-07-02 17:50 METAR KESN 022150Z 00000KT 5SM -RA SCT010 BKN015 OVC060 22/22 A2992 =
2015-07-02 16:58 METAR KESN 022058Z 02005KT 4SM BR SCT008 BKN015 22/22 A2993 =
2015-07-02 16:28 METAR KESN 022028Z 02005KT 4SM BR SCT008 BKN015 22/21 A2993 =
2015-07-02 15:45 METAR KESN 021945Z 02005KT 2 1/2SM BR SCT008 BKN015 22/21 A2993 =
2015-07-02 14:45 METAR KESN 021845Z 02007KT 2SM RA BKN008 OVC013 22/21 A2993 =
2015-07-02 13:50 METAR KESN 021750Z 04007KT 5SM BR OVC120 22/22 A2992 =
2015-07-02 12:50 METAR KESN 021650Z 04007KT 5SM BR OVC120 22/22 A2992 =
2015-07-02 11:50 METAR KESN 021550Z 06005KT 5SM BR OVC120 22/22 A2992 =
2015-07-02 10:48 METAR KESN 021448Z 06004KT 4SM -RA BR BKN010 BKN015 OVC023 21/21 A2993 =
2015-07-02 10:05 METAR KESN 021405Z COR 07007KT 4SM -TSRA BR SCT008 BKN013 OVC050 22/22 A2993 =
2015-07-02 09:50 METAR KESN 021350Z 05005KT 5SM -RA BR BKN050 OVC060 22/22 A2993 =
2015-07-02 08:50 METAR KESN 021250Z 05005KT 4SM -RA BR SCT013 OVC060 22/22 A2993 =
2015-07-02 08:25 METAR KESN 021225Z 31010KT 4SM -RA BR SCT046 BKN060 22/22 A2995 =
2015-07-02 07:50 METAR KESN 021150Z 00000KT 5SM BR BKN050 OVC100 22/22 A2992 =
2015-07-02 06:50 METAR KESN 021050Z 05004KT 4SM BR FEW020 BKN049 OVC070 22/22 A2991 =
2015-07-02 05:55 METAR KESN 020955Z 00000KT 4SM BR SCT020 BKN030 OVC050 21/21 A2991 RMK OCNL
                 LTGCC SW-S =
2015-07-02 05:54 METAR KESN 020954Z AUTO 00000KT 4SM BR CLR 21/21 A2991 RMK AO2 T02070207 =
2015-07-02 05:26 METAR KESN 020938Z AUTO 00000KT 2 1/2SM BR SCT055 21/21 A2990 =
2015-07-02 05:26 METAR KESN 020938Z AUTO 00000KT 2 1/2SM BR SCT055 21/21 A2990 RMK AO2 T02070207
                 =
2015-07-02 05:08 METAR KESN 020918Z AUTO 00000KT 2SM BR CLR 21/21 A2990 =
2015-07-02 05:07 METAR KESN 020918Z AUTO 00000KT 2SM BR CLR 21/21 A2990 RMK AO2 T02070207 =
2015-07-02 04:58 METAR KESN 020858Z AUTO 00000KT 2SM BR CLR 21/21 A2991 RMK AO2 60001 T02080208 =
2015-07-02 04:26 METAR KESN 020837Z AUTO 00000KT 2 1/2SM BR SCT050 21/21 A2991 =
2015-07-02 04:26 METAR KESN 020837Z AUTO 00000KT 2 1/2SM BR SCT050 21/21 A2991 RMK AO2 T02100210
                 =
2015-07-02 04:07 METAR KESN 020817Z AUTO 00000KT 2SM BR SCT050 BKN055 BKN120 21/21 A2992 =
2015-07-02 04:07 METAR KESN 020817Z AUTO 00000KT 2SM BR SCT050 BKN055 BKN120 21/21 A2992 RMK AO2
                 T02110211 =
2015-07-02 03:57 METAR KESN 020757Z AUTO 00000KT 2 1/2SM BR SCT065 SCT120 21/21 A2992 RMK AO2
                 T02100210 =

Support USWX by starting your Amazon purchase here.